Time;durP1;ratioP1;P1;durP2;ratioP2;P2;SDS_P1;SDS_P2;PMS_P1;PMS_P2;Temp;Humidity;BMP_temperature;BMP_pressure;BME280_temperature;BME280_humidity;BME280_pressure;Samples;Min_cycle;Max_cycle;Signal;HPM_P1;HPM_P2
2022/01/12 05:31:02;;;;;;;;;63.33;50.33;;;;;4.55;69.34;103401.84;5064352;27;45580;-74
2022/01/12 05:33:27;;;;;;;;;65.00;47.00;;;;;4.57;69.57;103400.13;5058136;28;45423;-73
2022/01/12 05:35:55;;;;;;;;;65.00;47.00;;;;;4.56;69.62;103393.00;5057517;28;45564;-74
2022/01/12 05:38:21;;;;;;;;;63.33;49.00;;;;;4.56;69.33;103395.66;5057891;28;45395;-73
2022/01/12 05:40:49;;;;;;;;;69.00;49.67;;;;;4.45;69.16;103373.28;5057206;28;45509;-74
2022/01/12 05:43:24;;;;;;;;;58.33;49.33;;;;;4.54;69.01;103392.06;5057715;28;45387;-74
2022/01/12 05:45:52;;;;;;;;;65.33;45.33;;;;;4.57;68.91;103404.53;5058768;28;45489;-74
2022/01/12 05:50:43;;;;;;;;;65.00;50.33;;;;;4.51;68.86;103377.81;5057208;28;45296;-73
2022/01/12 05:53:09;;;;;;;;;70.33;53.67;;;;;4.60;68.97;103393.94;5057388;28;45334;-74
2022/01/12 05:55:34;;;;;;;;;65.33;51.00;;;;;4.61;68.81;103394.84;5038712;28;45469;-74
2022/01/12 05:58:00;;;;;;;;;64.67;47.33;;;;;4.57;69.25;103385.94;5057197;28;45459;-73
2022/01/12 06:00:28;;;;;;;;;74.33;50.33;;;;;4.56;68.71;103386.81;5038837;28;45486;-73
2022/01/12 06:02:54;;;;;;;;;66.33;52.00;;;;;4.51;68.90;103407.94;5057341;28;45381;-74
2022/01/12 06:05:22;;;;;;;;;66.00;50.33;;;;;4.45;69.62;103417.53;5057123;28;46012;-75
2022/01/12 06:07:48;;;;;;;;;73.00;55.00;;;;;4.41;69.76;103421.00;5038806;28;47639;-74
2022/01/12 06:10:15;;;;;;;;;67.00;51.00;;;;;4.37;70.01;103417.38;5057821;28;46120;-74
2022/01/12 06:12:40;;;;;;;;;70.00;51.33;;;;;4.33;69.81;103412.88;5057857;28;45328;-72
2022/01/12 06:15:07;;;;;;;;;71.33;50.67;;;;;4.34;70.30;103405.81;5056375;28;45525;-78
2022/01/12 06:17:32;;;;;;;;;73.00;50.33;;;;;4.34;70.02;103405.81;5056912;28;45338;-70
2022/01/12 06:19:58;;;;;;;;;68.67;52.67;;;;;4.37;70.28;103409.41;5057251;28;45228;-77
2022/01/12 06:22:24;;;;;;;;;68.33;51.00;;;;;4.40;70.24;103409.50;5058038;28;45419;-74
2022/01/12 06:24:50;;;;;;;;;64.33;49.00;;;;;4.32;69.81;103404.88;5061029;28;45269;-75
2022/01/12 06:27:17;;;;;;;;;76.67;52.00;;;;;4.30;70.26;103406.59;5061319;28;46393;-71
2022/01/12 06:29:50;;;;;;;;;69.00;51.00;;;;;4.28;70.27;103406.53;5057368;28;45450;-75
2022/01/12 06:32:16;;;;;;;;;71.67;53.00;;;;;4.21;70.47;103412.59;5056633;28;45338;-73
2022/01/12 06:34:41;;;;;;;;;76.33;52.67;;;;;4.08;70.49;103410.53;5056653;28;45330;-73
2022/01/12 06:37:07;;;;;;;;;68.67;50.33;;;;;3.96;71.15;103395.19;5056458;28;46256;-76
2022/01/12 06:39:33;;;;;;;;;75.33;53.00;;;;;3.97;71.12;103410.25;5037482;28;45689;-76
2022/01/12 06:41:59;;;;;;;;;66.33;50.00;;;;;3.98;71.49;103414.72;5056138;28;45349;-75
2022/01/12 06:44:25;;;;;;;;;70.33;52.00;;;;;3.95;71.46;103403.13;5056206;28;45342;-75
2022/01/12 06:46:52;;;;;;;;;68.00;47.67;;;;;3.91;71.11;103403.91;5056295;28;46165;-76
2022/01/12 06:49:19;;;;;;;;;69.00;48.33;;;;;4.03;71.39;103414.81;5055634;28;45675;-75
2022/01/12 06:51:46;;;;;;;;;71.00;52.67;;;;;3.96;71.49;103402.25;5037837;28;45380;-74
2022/01/12 06:54:12;;;;;;;;;72.67;49.33;;;;;4.06;71.68;103422.84;5053913;28;45578;-73
2022/01/12 06:56:38;;;;;;;;;67.33;52.67;;;;;4.01;71.72;103420.06;5055363;28;46039;-73
2022/01/12 06:59:04;;;;;;;;;75.00;55.67;;;;;4.01;71.41;103414.75;5038012;28;45517;-75
2022/01/12 07:01:30;;;;;;;;;75.67;50.67;;;;;4.14;71.33;103438.09;5056543;28;45418;-73
2022/01/12 07:03:56;;;;;;;;;75.33;51.67;;;;;4.22;71.59;103432.06;5055811;28;45454;-74
2022/01/12 07:06:21;;;;;;;;;64.67;50.67;;;;;4.24;71.02;103428.59;5055069;28;45390;-73
2022/01/12 07:08:47;;;;;;;;;65.00;50.00;;;;;4.30;70.96;103427.81;5055125;28;45513;-72
2022/01/12 07:11:12;;;;;;;;;61.33;47.33;;;;;4.28;71.12;103421.56;5055655;28;45422;-73
2022/01/12 07:13:38;;;;;;;;;78.00;52.67;;;;;4.38;70.81;103427.13;5055772;28;46333;-73
2022/01/12 07:16:04;;;;;;;;;65.33;50.00;;;;;4.42;70.41;103431.63;5055683;28;45409;-72
2022/01/12 07:18:29;;;;;;;;;66.33;49.00;;;;;4.45;70.64;103420.19;5037668;28;45332;-73
2022/01/12 07:20:56;;;;;;;;;69.67;51.00;;;;;4.35;70.27;103402.25;5054998;28;45364;-72
2022/01/12 07:23:22;;;;;;;;;67.67;54.33;;;;;4.33;70.67;103396.94;5055721;28;45346;-74
2022/01/12 07:25:47;;;;;;;;;68.33;48.67;;;;;4.36;70.38;103406.72;5055605;28;45395;-73
2022/01/12 07:28:13;;;;;;;;;71.33;47.00;;;;;4.34;70.50;103408.47;5055500;28;45468;-72
2022/01/12 07:30:38;;;;;;;;;67.33;50.67;;;;;4.18;70.33;103397.47;5055575;28;45323;-73
2022/01/12 07:33:04;;;;;;;;;67.00;46.67;;;;;4.20;70.43;103405.47;5055574;28;45403;-72
2022/01/12 07:35:29;;;;;;;;;67.67;50.33;;;;;4.14;70.56;103416.88;5055600;28;46118;-73
2022/01/12 07:37:54;;;;;;;;;61.00;45.67;;;;;4.19;70.61;103436.44;5068957;28;45401;-73
2022/01/12 07:40:20;;;;;;;;;59.67;46.33;;;;;4.10;71.15;103432.66;5055399;28;45434;-73
2022/01/12 07:42:45;;;;;;;;;68.33;47.33;;;;;4.13;70.84;103432.75;5055776;28;45315;-72
2022/01/12 07:45:11;;;;;;;;;61.33;42.67;;;;;4.11;71.27;103450.41;5055660;28;45275;-72
2022/01/12 07:47:37;;;;;;;;;65.33;47.67;;;;;4.10;70.92;103437.97;5037290;28;46131;-73
2022/01/12 07:50:05;;;;;;;;;69.00;47.33;;;;;4.19;70.82;103463.00;5037708;28;45419;-74
2022/01/12 07:52:31;;;;;;;;;60.33;47.67;;;;;4.20;70.87;103458.56;5054680;28;45504;-74
2022/01/12 07:54:58;;;;;;;;;70.33;53.33;;;;;4.24;70.85;103470.19;5055155;28;46106;-73
2022/01/12 07:57:23;;;;;;;;;44.00;33.00;;;;;4.28;71.07;103470.28;5055197;28;45343;-73
2022/01/12 07:59:49;;;;;;;;;65.33;48.67;;;;;4.30;70.57;103473.88;5055456;28;45369;-75
2022/01/12 08:02:14;;;;;;;;;69.00;47.33;;;;;4.27;70.95;103473.78;5036817;28;45934;-73
2022/01/12 08:04:40;;;;;;;;;71.00;53.00;;;;;4.19;71.02;103470.94;5054956;28;45922;-73
2022/01/12 08:07:06;;;;;;;;;59.00;49.00;;;;;4.22;71.06;103478.09;5055069;28;45323;-74
2022/01/12 08:09:32;;;;;;;;;64.33;46.00;;;;;4.18;71.21;103468.25;5055076;28;45551;-72
2022/01/12 08:11:58;;;;;;;;;75.67;52.00;;;;;4.28;70.92;103487.97;5054961;28;45252;-72
2022/01/12 08:14:23;;;;;;;;;74.67;55.00;;;;;4.25;70.89;103491.47;5055117;28;46319;-74
2022/01/12 08:16:49;;;;;;;;;64.33;44.67;;;;;4.33;70.92;103505.81;5054943;28;45477;-73
2022/01/12 08:19:19;;;;;;;;;73.67;49.33;;;;;4.38;70.94;103517.44;5037024;28;45428;-73
2022/01/12 08:21:45;;;;;;;;;75.67;53.67;;;;;4.35;70.74;103501.41;5054809;28;45355;-74
2022/01/12 08:24:12;;;;;;;;;64.67;50.33;;;;;4.45;70.29;103524.69;5054712;28;45563;-73
2022/01/12 08:26:38;;;;;;;;;73.67;53.33;;;;;4.46;70.19;103522.94;5055005;28;45284;-73
2022/01/12 08:29:03;;;;;;;;;64.00;47.67;;;;;4.50;69.97;103523.06;5054898;28;45500;-73
2022/01/12 08:31:30;;;;;;;;;75.33;51.67;;;;;4.50;70.21;103524.81;5054755;28;46441;-74
2022/01/12 08:33:55;;;;;;;;;65.67;51.00;;;;;4.56;70.31;103539.13;5054871;28;45351;-74
2022/01/12 08:36:21;;;;;;;;;74.67;55.33;;;;;4.59;69.97;103543.63;5054714;28;45339;-73
2022/01/12 08:38:47;;;;;;;;;76.67;55.33;;;;;4.55;69.92;103537.34;5054849;28;45232;-72
2022/01/12 08:41:13;;;;;;;;;66.33;49.33;;;;;4.55;70.21;103539.09;5054176;28;45420;-73
2022/01/12 08:43:38;;;;;;;;;69.00;49.67;;;;;4.56;70.07;103541.78;5054969;28;46660;-72
2022/01/12 08:46:04;;;;;;;;;73.33;54.67;;;;;4.62;70.25;103550.75;5054431;28;45313;-73
2022/01/12 08:48:29;;;;;;;;;69.33;48.33;;;;;4.67;69.55;103563.31;5054693;28;45307;-72
2022/01/12 08:50:55;;;;;;;;;69.67;52.00;;;;;4.68;69.33;103550.91;5054312;28;45259;-74
2022/01/12 08:53:20;;;;;;;;;76.00;50.00;;;;;4.62;69.63;103524.19;5036216;28;47372;-72
2022/01/12 08:55:46;;;;;;;;;68.33;51.33;;;;;4.78;69.66;103553.78;5054135;28;45344;-74
2022/01/12 08:58:11;;;;;;;;;73.33;51.67;;;;;4.81;69.38;103547.66;5054497;28;45377;-73
2022/01/12 09:00:37;;;;;;;;;71.00;50.33;;;;;4.87;68.87;103564.63;5054255;28;45342;-72
2022/01/12 09:03:02;;;;;;;;;76.00;54.33;;;;;4.86;69.38;103551.31;5053616;28;45224;-74
2022/01/12 09:05:29;;;;;;;;;73.67;56.67;;;;;4.95;68.48;103560.38;5036011;28;45344;-74
2022/01/12 09:07:55;;;;;;;;;69.33;53.33;;;;;4.95;69.05;103548.84;5054512;28;45188;-73
2022/01/12 09:10:21;;;;;;;;;78.33;53.00;;;;;5.01;68.44;103572.03;5054408;28;45577;-73
2022/01/12 09:12:46;;;;;;;;;77.33;53.33;;;;;5.06;69.00;103573.03;5054324;28;45604;-74
2022/01/12 09:15:13;;;;;;;;;67.33;50.67;;;;;4.98;68.88;103564.00;5054150;28;45439;-72
2022/01/12 09:17:39;;;;;;;;;69.67;53.00;;;;;5.12;68.65;103570.50;5054470;28;45283;-73
2022/01/12 09:20:06;;;;;;;;;63.67;50.67;;;;;5.19;68.35;103575.09;5053866;28;45319;-73
2022/01/12 09:22:32;;;;;;;;;65.33;51.33;;;;;5.18;68.00;103587.50;5054044;28;45509;-73
2022/01/12 09:24:57;;;;;;;;;71.33;56.67;;;;;5.26;68.08;103593.88;5053807;28;45438;-73
2022/01/12 09:27:22;;;;;;;;;69.33;52.67;;;;;5.27;68.06;103597.44;5054234;28;45497;-74
2022/01/12 09:29:48;;;;;;;;;71.00;53.33;;;;;5.28;67.39;103597.44;5037617;28;47112;-73
2022/01/12 09:32:13;;;;;;;;;75.67;54.67;;;;;5.28;68.21;103616.06;5053524;28;45426;-73
2022/01/12 09:34:39;;;;;;;;;71.00;50.67;;;;;5.26;67.77;103622.25;5054079;28;45351;-74
2022/01/12 09:37:05;;;;;;;;;73.67;54.67;;;;;5.31;68.39;103626.78;5054009;28;45480;-74
2022/01/12 09:39:30;;;;;;;;;69.00;51.67;;;;;5.35;68.21;103630.44;5053687;28;45414;-71
2022/01/12 09:41:57;;;;;;;;;80.33;55.00;;;;;5.39;68.05;103645.56;5053949;28;45980;-74
2022/01/12 09:44:33;;;;;;;;;78.00;58.67;;;;;5.42;68.34;103650.97;5053877;28;45812;-72
2022/01/12 09:47:04;;;;;;;;;69.00;52.33;;;;;5.46;67.91;103650.16;5054261;28;45429;-73
2022/01/12 09:49:31;;;;;;;;;67.00;55.00;;;;;5.48;67.67;103651.09;5053816;28;45486;-73
2022/01/12 09:51:58;;;;;;;;;74.67;56.33;;;;;5.49;67.86;103646.66;5053895;28;46460;-72
2022/01/12 09:54:24;;;;;;;;;69.67;53.67;;;;;5.35;67.46;103641.06;5053463;28;45476;-73
2022/01/12 09:56:50;;;;;;;;;82.33;57.00;;;;;5.27;68.26;103634.69;5035787;28;45502;-74
2022/01/12 09:59:15;;;;;;;;;72.33;54.33;;;;;5.39;67.83;103655.31;5053840;28;45271;-75
2022/01/12 10:01:43;;;;;;;;;76.33;56.00;;;;;5.31;67.38;103626.78;5053593;28;45373;-73
2022/01/12 10:04:16;;;;;;;;;75.67;57.33;;;;;5.34;68.14;103644.59;5053802;28;45536;-72
2022/01/12 10:06:50;;;;;;;;;62.33;42.67;;;;;5.41;68.43;103643.84;5053566;28;45390;-73
2022/01/12 10:09:21;;;;;;;;;74.67;53.67;;;;;5.49;67.85;103646.66;5053327;28;45328;-72
2022/01/12 10:11:56;;;;;;;;;74.33;54.67;;;;;5.53;67.62;103635.25;5053265;28;45788;-73
2022/01/12 10:14:24;;;;;;;;;75.67;54.33;;;;;5.60;67.25;103638.06;5053868;28;45336;-73
2022/01/12 10:16:55;;;;;;;;;75.67;55.67;;;;;5.61;67.17;103634.50;5056921;28;45493;-72
2022/01/12 10:19:25;;;;;;;;;79.33;56.33;;;;;5.75;67.18;103634.81;5056941;28;45347;-71
2022/01/12 10:21:51;;;;;;;;;77.00;55.67;;;;;5.79;67.09;103643.72;5056383;28;46306;-73
2022/01/12 10:24:19;;;;;;;;;78.67;57.33;;;;;5.81;67.10;103637.59;5038453;28;45880;-72
2022/01/12 10:26:46;;;;;;;;;80.00;55.67;;;;;5.84;67.10;103627.00;5056899;28;45361;-74
2022/01/12 10:29:21;;;;;;;;;77.33;54.00;;;;;5.99;66.92;103637.97;5065677;28;45220;-72
2022/01/12 10:32:04;;;;;;;;;73.67;53.00;;;;;6.00;66.14;103626.47;5056540;28;46826;-73
2022/01/12 10:34:36;;;;;;;;;75.67;54.00;;;;;6.10;65.88;103637.28;5039201;28;45379;-73
2022/01/12 10:37:07;;;;;;;;;79.33;57.33;;;;;5.91;66.01;103620.97;5057096;28;45465;-74
2022/01/12 10:39:33;;;;;;;;;82.00;55.33;;;;;6.08;66.50;103639.91;5038112;28;45402;-74
2022/01/12 10:42:06;;;;;;;;;69.67;54.00;;;;;6.15;65.97;103644.50;5056495;28;46024;-71
2022/01/12 10:44:40;;;;;;;;;76.33;57.33;;;;;6.18;65.62;103638.34;5056574;28;45292;-74
2022/01/12 10:47:06;;;;;;;;;80.67;56.00;;;;;6.23;65.63;103639.31;5056445;28;45402;-74
2022/01/12 10:49:33;;;;;;;;;75.67;56.33;;;;;6.19;65.57;103630.38;5056229;28;45414;-72
2022/01/12 10:51:59;;;;;;;;;79.00;55.67;;;;;6.23;65.54;103633.97;5056038;28;46236;-76
2022/01/12 10:54:25;;;;;;;;;81.33;56.00;;;;;6.25;65.78;103633.13;5056379;28;45319;-73
2022/01/12 10:56:50;;;;;;;;;74.67;55.33;;;;;6.22;66.12;103625.09;5056373;28;45392;-73
2022/01/12 10:59:17;;;;;;;;;72.67;55.67;;;;;6.23;66.04;103632.22;5056075;28;45552;-74
2022/01/12 11:01:43;;;;;;;;;72.00;55.33;;;;;6.19;66.02;103630.38;5056176;28;46450;-73
2022/01/12 11:04:09;;;;;;;;;71.33;55.33;;;;;6.16;66.67;103626.75;5056392;28;45300;-73
2022/01/12 11:06:35;;;;;;;;;71.00;52.00;;;;;6.26;66.40;103634.94;5056161;28;45350;-73
2022/01/12 11:09:01;;;;;;;;;67.33;53.67;;;;;6.35;66.39;103647.53;5056144;28;45173;-74
2022/01/12 11:11:28;;;;;;;;;81.67;57.67;;;;;6.40;65.67;103645.81;5056282;28;45443;-72
2022/01/12 11:13:54;;;;;;;;;73.33;55.33;;;;;6.42;66.24;103650.31;5056337;28;45525;-74
2022/01/12 11:16:21;;;;;;;;;62.33;48.00;;;;;6.35;65.84;103631.53;5056282;28;45450;-73
2022/01/12 11:18:48;;;;;;;;;71.00;51.67;;;;;6.47;65.46;103651.28;5055995;28;46146;-74
2022/01/12 11:21:36;;;;;;;;;69.67;52.33;;;;;6.44;65.32;103655.69;5055660;28;46093;-73
2022/01/12 11:24:04;;;;;;;;;73.00;50.33;;;;;6.28;65.53;103640.31;5055325;28;45183;-73
2022/01/12 11:26:32;;;;;;;;;72.33;54.67;;;;;6.20;65.59;103634.84;5055098;28;45331;-72
2022/01/12 11:28:59;;;;;;;;;72.33;48.00;;;;;6.06;65.96;103618.59;5055570;28;45261;-74
2022/01/12 11:31:30;;;;;;;;;68.00;53.67;;;;;6.21;66.23;103635.75;5055398;28;46516;-72
2022/01/12 11:33:56;;;;;;;;;69.67;48.67;;;;;6.28;65.67;103632.31;5055643;28;45394;-74
2022/01/12 11:36:28;;;;;;;;;76.67;54.00;;;;;6.36;66.15;103644.91;5055726;28;45488;-71
2022/01/12 11:39:08;;;;;;;;;72.00;49.33;;;;;6.44;65.63;103639.69;5055047;28;45526;-72
2022/01/12 11:41:36;;;;;;;;;72.00;51.33;;;;;6.44;64.89;103631.72;5043147;28;45500;-73
2022/01/12 11:44:01;;;;;;;;;69.33;53.67;;;;;6.51;65.06;103641.59;5055417;28;45179;-74
2022/01/12 11:46:51;;;;;;;;;59.67;50.00;;;;;6.51;64.91;103627.38;5055840;28;45276;-73
2022/01/12 11:49:25;;;;;;;;;75.00;52.33;;;;;6.51;64.56;103633.59;5054845;28;45438;-70
2022/01/12 11:51:51;;;;;;;;;59.00;48.00;;;;;6.54;64.94;103627.44;5055392;28;45307;-74
2022/01/12 11:54:20;;;;;;;;;68.33;50.67;;;;;6.49;64.43;103614.00;5055218;28;45376;-74
2022/01/12 11:56:51;;;;;;;;;67.00;51.67;;;;;6.59;64.80;103625.72;5055454;28;45542;-72
2022/01/12 11:59:17;;;;;;;;;73.67;53.00;;;;;6.60;64.86;103616.88;5055631;28;45404;-73
2022/01/12 12:01:49;;;;;;;;;76.00;55.33;;;;;6.67;64.52;103619.66;5055043;28;46250;-71
2022/01/12 12:04:30;;;;;;;;;66.33;50.00;;;;;6.70;63.84;103610.81;5055324;28;45346;-76
2022/01/12 12:07:06;;;;;;;;;66.67;50.33;;;;;6.75;64.37;103615.34;5055060;28;45487;-74
2022/01/12 12:09:37;;;;;;;;;64.67;52.00;;;;;6.66;64.14;103604.53;5054945;28;45168;-77
2022/01/12 12:12:09;;;;;;;;;74.00;55.33;;;;;6.73;64.19;103622.41;5036618;28;47284;-75
2022/01/12 12:14:35;;;;;;;;;69.00;45.00;;;;;6.71;64.31;103607.28;5055008;28;45303;-75
2022/01/12 12:17:02;;;;;;;;;66.00;49.67;;;;;6.80;64.65;103607.44;5054893;28;45311;-76
2022/01/12 12:19:28;;;;;;;;;60.33;48.00;;;;;6.69;64.03;103580.59;5054936;28;45439;-74
2022/01/12 12:21:53;;;;;;;;;66.33;49.33;;;;;6.91;63.66;103611.13;5054489;28;46017;-76
2022/01/12 12:24:18;;;;;;;;;67.67;50.00;;;;;6.96;63.96;103611.22;5054621;28;45239;-75
2022/01/12 12:26:47;;;;;;;;;75.67;49.67;;;;;6.69;63.65;103553.94;5054957;28;45453;-77
2022/01/12 12:29:17;;;;;;;;;68.67;52.00;;;;;7.00;62.84;103605.03;5048661;28;45268;-78
2022/01/12 12:31:46;;;;;;;;;55.67;44.67;;;;;7.00;63.33;103605.03;5054808;28;45385;-76
2022/01/12 12:34:12;;;;;;;;;67.67;46.33;;;;;7.00;63.00;103602.38;5054422;28;45348;-76
2022/01/12 12:36:37;;;;;;;;;67.00;53.00;;;;;6.97;63.37;103595.25;5054956;28;45433;-74
2022/01/12 12:39:11;;;;;;;;;65.67;53.33;;;;;6.93;62.74;103580.06;5054016;28;45585;-75
2022/01/12 12:41:46;;;;;;;;;61.67;46.67;;;;;6.91;63.39;103588.91;5054592;28;46122;-72
2022/01/12 12:44:24;;;;;;;;;64.00;52.67;;;;;6.87;63.87;103576.41;5055813;28;45313;-74
2022/01/12 12:46:51;;;;;;;;;54.67;44.00;;;;;6.99;63.83;103582.78;5054709;28;45446;-75
2022/01/12 12:49:16;;;;;;;;;70.33;53.33;;;;;7.06;63.58;103558.00;5054909;28;45553;-74
2022/01/12 12:51:42;;;;;;;;;67.67;49.33;;;;;7.07;62.82;103543.78;5053979;28;45373;-74
2022/01/12 12:54:07;;;;;;;;;66.67;51.33;;;;;7.12;63.01;103550.09;5046970;28;45586;-77
2022/01/12 12:56:40;;;;;;;;;67.00;51.33;;;;;7.09;62.50;103534.03;5053293;28;45343;-74
2022/01/12 12:59:07;;;;;;;;;67.33;52.33;;;;;7.22;62.35;103541.34;5054262;28;46072;-73
2022/01/12 13:01:32;;;;;;;;;61.00;48.33;;;;;7.30;62.77;103541.44;5054304;28;46066;-76
2022/01/12 13:04:00;;;;;;;;;69.67;49.00;;;;;7.40;61.99;103537.09;5054224;28;45418;-76
2022/01/12 13:06:36;;;;;;;;;63.00;48.00;;;;;7.50;62.24;103541.66;5053242;28;45443;-72
2022/01/12 13:09:07;;;;;;;;;63.33;50.33;;;;;7.60;62.05;103540.88;5054348;28;45367;-75
2022/01/12 13:11:36;;;;;;;;;57.00;44.33;;;;;7.53;61.80;103521.25;5053728;28;46953;-75
2022/01/12 13:14:05;;;;;;;;;68.00;49.00;;;;;7.76;61.26;103539.25;5054291;28;45354;-76
2022/01/12 13:16:31;;;;;;;;;59.00;48.67;;;;;7.75;60.78;103532.13;5054196;28;45419;-75
2022/01/12 13:19:05;;;;;;;;;70.00;54.33;;;;;7.82;60.24;103542.03;5053836;28;45532;-75
2022/01/12 13:21:33;;;;;;;;;71.00;52.33;;;;;7.83;60.08;103534.00;5053783;28;45460;-74
2022/01/12 13:23:59;;;;;;;;;63.00;47.67;;;;;7.81;60.41;103532.22;5053512;28;45458;-75
2022/01/12 13:26:26;;;;;;;;;65.00;48.33;;;;;7.86;60.13;103531.38;5035094;28;45337;-74
2022/01/12 13:28:51;;;;;;;;;60.00;47.33;;;;;7.83;60.25;103512.63;5053857;28;45400;-75
2022/01/12 13:31:19;;;;;;;;;68.33;51.67;;;;;7.84;60.48;103529.56;5053473;28;45583;-76
2022/01/12 13:33:44;;;;;;;;;63.00;47.00;;;;;7.86;60.81;103534.03;5054012;28;45315;-75
2022/01/12 13:36:20;;;;;;;;;70.67;48.00;;;;;7.85;60.14;103540.25;5053892;28;45626;-74
2022/01/12 13:38:48;;;;;;;;;68.67;45.33;;;;;7.77;61.13;103528.59;5053126;28;46088;-74
2022/01/12 13:41:17;;;;;;;;;64.33;51.33;;;;;7.92;60.93;103541.22;5066710;28;45449;-74
2022/01/12 13:43:49;;;;;;;;;67.33;51.33;;;;;7.95;60.79;103534.13;5067185;28;45350;-74
2022/01/12 13:46:17;;;;;;;;;64.00;49.00;;;;;7.85;60.42;103513.56;5054288;28;45424;-74
2022/01/12 13:51:37;;;;;;;;;68.67;48.33;;;;;7.96;59.84;103541.28;5057426;28;45405;-75
2022/01/12 13:54:14;;;;;;;;;64.33;51.00;;;;;7.87;59.93;103526.94;5038746;28;45549;-76
2022/01/12 13:56:50;;;;;;;;;65.67;49.67;;;;;7.95;60.37;103549.25;5039544;28;46018;-73
2022/01/12 13:59:17;;;;;;;;;67.67;47.00;;;;;7.91;60.69;103542.13;5057755;28;45434;-73
2022/01/12 14:01:44;;;;;;;;;64.67;48.33;;;;;7.91;60.63;103548.31;5057029;28;45693;-76
2022/01/12 14:04:17;;;;;;;;;67.33;48.67;;;;;7.73;60.52;103528.56;5057558;28;45331;-75
2022/01/12 14:06:48;;;;;;;;;66.67;51.00;;;;;7.87;60.51;103556.31;5056936;28;45565;-74
2022/01/12 14:09:41;;;;;;;;;71.33;54.67;;;;;7.79;59.88;103558.00;5056591;28;45442;-71
2022/01/12 14:12:17;;;;;;;;;67.67;52.33;;;;;7.60;60.70;103548.88;5054599;28;45422;-74
2022/01/12 14:14:50;;;;;;;;;57.00;44.00;;;;;7.70;61.01;103555.22;5057069;28;45392;-73
2022/01/12 14:17:44;;;;;;;;;68.67;53.33;;;;;7.72;61.06;103554.38;5057022;28;45236;-71
2022/01/12 14:20:23;;;;;;;;;64.00;49.33;;;;;7.63;61.24;103532.91;5054915;28;45592;-75
2022/01/12 14:22:55;;;;;;;;;72.00;52.00;;;;;7.71;60.89;103549.91;5055414;28;46834;-74
2022/01/12 14:25:34;;;;;;;;;60.33;44.67;;;;;7.71;61.26;103557.03;5039001;28;45403;-74
2022/01/12 14:28:01;;;;;;;;;72.00;54.00;;;;;7.69;61.06;103554.34;5057028;28;45368;-73
2022/01/12 14:30:26;;;;;;;;;75.00;53.00;;;;;7.73;60.89;103556.19;5066714;28;45983;-74
2022/01/12 14:32:52;;;;;;;;;63.00;50.67;;;;;7.63;60.81;103537.34;5058920;28;46194;-74
2022/01/12 14:35:23;;;;;;;;;62.67;47.67;;;;;7.58;60.72;103548.88;5056835;28;45465;-74
2022/01/12 14:37:53;;;;;;;;;66.33;50.00;;;;;7.51;61.05;103548.78;5055200;28;45362;-74
2022/01/12 14:40:21;;;;;;;;;60.00;48.00;;;;;7.34;61.17;103513.00;5056080;28;45504;-74
2022/01/12 14:42:51;;;;;;;;;72.00;56.33;;;;;7.53;61.65;103541.69;5061029;28;46055;-74
2022/01/12 14:45:29;;;;;;;;;63.33;50.33;;;;;7.58;61.76;103550.63;5056279;28;45492;-75
2022/01/12 14:47:57;;;;;;;;;71.33;53.67;;;;;7.55;61.25;103538.19;5056348;28;45382;-73
2022/01/12 14:50:23;;;;;;;;;63.00;48.33;;;;;7.64;61.52;103549.84;5056281;28;45351;-73
2022/01/12 14:52:49;;;;;;;;;71.33;52.67;;;;;7.55;61.21;103534.59;5055362;28;45972;-73
2022/01/12 14:55:15;;;;;;;;;62.33;49.00;;;;;7.61;60.93;103553.34;5055982;28;45339;-74
2022/01/12 14:57:41;;;;;;;;;58.67;47.67;;;;;7.64;61.30;103557.84;5055967;28;45510;-74
2022/01/12 15:00:16;;;;;;;;;64.67;50.67;;;;;7.65;60.90;103548.97;5056421;28;45304;-75
2022/01/12 15:02:41;;;;;;;;;68.00;50.67;;;;;7.62;61.06;103538.22;5054900;28;46275;-75
2022/01/12 15:05:07;;;;;;;;;67.67;52.00;;;;;7.73;60.79;103558.84;5056627;28;45560;-74
2022/01/12 15:07:32;;;;;;;;;58.33;48.00;;;;;7.73;60.83;103560.63;5056938;28;45466;-73
2022/01/12 15:09:58;;;;;;;;;67.67;51.33;;;;;7.73;60.57;103563.28;5055936;28;45337;-74
2022/01/12 15:12:30;;;;;;;;;65.67;49.67;;;;;7.76;60.64;103563.31;5055463;28;45472;-74
2022/01/12 15:15:00;;;;;;;;;59.67;47.67;;;;;7.77;60.83;103560.66;5056288;28;45587;-74
2022/01/12 15:17:33;;;;;;;;;60.33;42.67;;;;;7.74;60.48;103547.25;5056414;28;45434;-74
2022/01/12 15:19:59;;;;;;;;;66.33;51.33;;;;;7.66;60.46;103529.34;5037447;28;46493;-74
2022/01/12 15:22:24;;;;;;;;;68.00;49.00;;;;;7.68;60.46;103533.84;5037496;28;47069;-73
2022/01/12 15:24:50;;;;;;;;;64.33;49.00;;;;;7.74;60.58;103536.56;5055338;28;45244;-73
2022/01/12 15:27:16;;;;;;;;;64.33;48.67;;;;;7.82;60.62;103553.59;5055123;28;45331;-74
2022/01/12 15:29:43;;;;;;;;;63.50;47.75;;;;;7.84;60.63;103556.25;5055791;28;45473;-74
2022/01/12 15:32:09;;;;;;;;;58.75;45.00;;;;;7.81;60.69;103542.91;5055362;28;46301;-75
2022/01/12 15:34:37;;;;;;;;;55.67;43.33;;;;;7.86;60.25;103547.41;5055535;28;45345;-75
2022/01/12 15:37:03;;;;;;;;;60.00;45.75;;;;;7.87;59.49;103546.53;5055826;28;45453;-77
2022/01/12 15:39:29;;;;;;;;;63.33;47.00;;;;;7.88;59.73;103552.75;5054281;28;45471;-74
2022/01/12 15:41:55;;;;;;;;;43.00;36.75;;;;;7.84;59.11;103540.25;5055039;28;46236;-74
2022/01/12 15:44:20;;;;;;;;;44.25;37.00;;;;;7.86;59.37;103526.03;5055962;28;45283;-74
2022/01/12 15:46:48;;;;;;;;;52.75;42.75;;;;;7.79;59.05;103516.16;5037784;28;45707;-74
2022/01/12 15:49:13;;;;;;;;;60.50;44.75;;;;;7.86;59.05;103542.06;5055496;28;45335;-73
2022/01/12 15:51:38;;;;;;;;;58.50;42.50;;;;;7.94;59.06;103548.38;5055265;28;46006;-74
2022/01/12 15:54:04;;;;;;;;;54.50;43.50;;;;;7.95;58.73;103552.84;5054727;28;45350;-74
2022/01/12 15:56:29;;;;;;;;;48.50;42.25;;;;;7.95;58.98;103557.28;5054924;28;45322;-75
2022/01/12 15:58:55;;;;;;;;;54.25;42.00;;;;;7.95;59.46;103566.19;5055382;28;45373;-74
2022/01/12 16:01:20;;;;;;;;;57.50;43.25;;;;;7.93;59.04;103559.94;5055331;28;45450;-75
2022/01/12 16:03:46;;;;;;;;;54.00;43.25;;;;;7.86;59.28;103557.19;5055136;28;45296;-74
2022/01/12 16:06:12;;;;;;;;;53.00;38.25;;;;;7.89;59.12;103549.22;5055322;28;45661;-73
2022/01/12 16:08:37;;;;;;;;;55.50;38.75;;;;;7.90;59.59;103551.91;5054754;28;45633;-74
2022/01/12 16:11:09;;;;;;;;;46.00;40.50;;;;;7.85;59.45;103552.72;5054613;28;46518;-75
2022/01/12 16:13:38;;;;;;;;;52.75;42.75;;;;;7.86;59.85;103559.84;5054726;28;45398;-73
2022/01/12 16:16:05;;;;;;;;;61.50;45.00;;;;;7.85;59.58;103547.38;5055224;28;45216;-75
2022/01/12 16:18:31;;;;;;;;;54.25;42.75;;;;;7.89;59.81;103565.25;5054284;28;45441;-76
2022/01/12 16:21:00;;;;;;;;;59.25;44.25;;;;;7.75;59.92;103538.38;5055103;28;46335;-74
2022/01/12 16:23:28;;;;;;;;;59.75;44.00;;;;;7.91;59.49;103555.47;5054486;28;45373;-74
2022/01/12 16:25:56;;;;;;;;;59.25;43.75;;;;;7.92;59.56;103557.22;5055570;28;45394;-73
2022/01/12 16:28:21;;;;;;;;;62.00;46.67;;;;;7.92;60.17;103557.22;5053790;28;45806;-74
2022/01/12 16:30:55;;;;;;;;;50.75;39.25;;;;;7.90;60.20;103561.69;5054597;28;45308;-74
2022/01/12 16:33:24;;;;;;;;;53.75;40.25;;;;;7.90;60.20;103551.00;5054768;28;45501;-74
2022/01/12 16:35:50;;;;;;;;;59.75;42.00;;;;;7.93;60.28;103569.72;5063920;28;45393;-73
2022/01/12 16:38:19;;;;;;;;;56.67;46.00;;;;;7.92;59.73;103578.59;5063263;28;45445;-74
2022/01/12 16:40:46;;;;;;;;;57.75;44.00;;;;;7.93;60.24;103578.63;5053874;28;45474;-73
2022/01/12 16:43:11;;;;;;;;;54.50;39.25;;;;;7.74;60.03;103541.91;5036486;28;45956;-74
2022/01/12 16:45:38;;;;;;;;;48.50;37.50;;;;;7.93;60.35;103581.28;5054768;28;45610;-74
2022/01/12 16:48:04;;;;;;;;;52.25;36.75;;;;;7.93;59.78;103581.28;5054703;28;45300;-75
2022/01/12 16:50:30;;;;;;;;;45.75;38.00;;;;;7.86;59.78;103576.78;5054689;28;45354;-76
2022/01/12 16:52:56;;;;;;;;;53.00;40.25;;;;;7.93;59.52;103599.09;5054434;28;45327;-74
2022/01/12 16:55:21;;;;;;;;;41.75;38.25;;;;;7.85;58.95;103580.31;5054284;28;45364;-73